Terminal Aerodrome Forecast
Issued by NWS

Home | Current Version | Previous Version | Text Only | Print | Product List | Glossary On
Versions: 1 2 3 4 5 6 7 8 9 10 11 12
000
FTUS43 KEAX 011700
TAFMKC
TAF
KMKC 011721Z 0118/0218 33015G27KT 3SM -SN BR OVC012
     FM020000 34012G22KT 5SM -SN OVC018
     FM020400 31010KT P6SM BKN025
     FM020900 30005KT P6SM SKC=

USA.gov is the U.S. government's official web portal to all federal, state and local government web resources and services.